Time;durP1;ratioP1;P1;durP2;ratioP2;P2;SDS_P1;SDS_P2;PMS_P1;PMS_P2;Temp;Humidity;BMP_temperature;BMP_pressure;BME280_temperature;BME280_humidity;BME280_pressure;Samples;Min_cycle;Max_cycle;Signal;HPM_P1;HPM_P2
2022/01/18 00:04:27;;;;;;;11.15;8.95;;;;;;;7.98;77.57;102073.28;10524522;28;20071;-64
2022/01/18 00:09:28;;;;;;;12.48;7.45;;;;;;;8.05;76.84;102069.47;10493464;28;20079;-65
2022/01/18 00:14:45;;;;;;;7.07;3.38;;;;;;;8.03;73.34;102071.34;10496300;28;20048;-64
2022/01/18 00:19:54;;;;;;;5.70;2.90;;;;;;;8.08;71.26;102073.81;10476337;28;20040;-64
2022/01/18 00:24:58;;;;;;;4.47;1.30;;;;;;;8.12;68.78;102089.53;10477825;28;20043;-65
2022/01/18 00:30:21;;;;;;;6.03;1.55;;;;;;;8.04;68.42;102096.91;10478728;28;20044;-65
2022/01/18 00:35:23;;;;;;;6.35;1.67;;;;;;;8.08;66.87;102097.66;10480018;28;20139;-65
2022/01/18 00:40:25;;;;;;;2.92;0.93;;;;;;;8.10;66.68;102101.97;10472688;28;22213;-66
2022/01/18 00:45:26;;;;;;;2.92;1.10;;;;;;;8.09;65.93;102109.97;10481850;28;20126;-65
2022/01/18 00:50:31;;;;;;;4.80;1.15;;;;;;;8.10;65.64;102106.41;10479800;28;20350;-65
2022/01/18 00:55:36;;;;;;;5.47;1.50;;;;;;;8.08;65.79;102114.44;10476889;28;20060;-65
2022/01/18 01:00:37;;;;;;;5.35;1.73;;;;;;;8.06;65.22;102113.66;10481337;28;20047;-65
2022/01/18 01:05:39;;;;;;;3.15;1.08;;;;;;;8.10;66.30;102124.97;10481930;28;20048;-65
2022/01/18 01:10:41;;;;;;;4.22;1.83;;;;;;;8.03;65.59;102140.28;10484743;28;20044;-66
2022/01/18 01:43:19;;;;;;;3.75;1.90;;;;;;;8.01;67.68;102147.44;10477504;28;20094;-65
2022/01/18 01:47:55;;;;;;;6.47;2.80;;;;;;;8.04;69.15;102139.34;10473200;28;20537;-65
2022/01/18 01:52:57;;;;;;;6.88;2.60;;;;;;;8.08;69.42;102137.47;10473993;28;20131;-66
2022/01/18 01:57:59;;;;;;;8.43;3.83;;;;;;;8.08;69.80;102135.66;10485562;28;20702;-65
2022/01/18 02:03:00;;;;;;;8.68;3.83;;;;;;;8.03;70.25;102140.28;10478166;28;20079;-66
2022/01/18 02:08:07;;;;;;;9.32;3.38;;;;;;;8.05;70.64;102135.78;10481207;28;20382;-65
2022/01/18 02:13:11;;;;;;;9.20;4.97;;;;;;;8.06;70.88;102134.88;10477406;28;20143;-67
2022/01/18 02:23:49;;;;;;;11.23;5.90;;;;;;;8.14;71.84;102130.09;10425092;28;20098;-66
2022/01/18 02:28:50;;;;;;;10.05;5.55;;;;;;;8.12;71.50;102131.97;10498536;28;20078;-66
2022/01/18 02:33:52;;;;;;;9.32;4.55;;;;;;;8.12;71.04;102134.63;10509120;28;20044;-66
2022/01/18 02:38:53;;;;;;;7.03;3.85;;;;;;;8.11;70.43;102140.84;10517204;28;20036;-66
2022/01/18 02:43:57;;;;;;;6.35;3.40;;;;;;;8.16;70.51;102137.16;10524183;28;20052;-67
2022/01/18 02:48:59;;;;;;;7.70;3.58;;;;;;;8.22;69.56;102128.94;10508423;28;20511;-66
2022/01/18 02:54:04;;;;;;;7.03;3.45;;;;;;;8.24;70.05;102129.72;10520423;28;20052;-66
2022/01/18 03:00:07;;;;;;;5.80;3.30;;;;;;;8.16;69.17;102126.53;10538074;28;20040;-65
2022/01/18 03:04:28;;;;;;;11.55;4.13;;;;;;;8.17;68.82;102137.09;10512880;28;20052;-65
2022/01/18 03:09:29;;;;;;;6.72;2.38;;;;;;;8.01;69.43;102117.41;10466807;22;20143;-58
2022/01/18 03:14:31;;;;;;;8.13;2.78;;;;;;;8.16;69.07;102131.84;10484665;28;20052;-55
2022/01/18 03:19:32;;;;;;;6.80;2.13;;;;;;;8.20;68.66;102141.41;10479262;28;20087;-55
2022/01/18 03:29:45;;;;;;;5.38;1.90;;;;;;;8.08;69.11;102146.25;10478609;28;20136;-56
2022/01/18 03:34:47;;;;;;;6.97;2.00;;;;;;;8.03;67.92;102127.03;10489632;28;20634;-56
2022/01/18 03:39:48;;;;;;;5.05;2.13;;;;;;;8.20;68.08;102149.38;10481595;28;20060;-57
2022/01/18 03:44:50;;;;;;;12.63;3.42;;;;;;;8.07;67.70;102127.75;10472756;28;20072;-56
2022/01/18 03:49:51;;;;;;;5.40;1.80;;;;;;;8.03;67.75;102124.38;10481037;28;20075;-58
2022/01/18 03:54:53;;;;;;;4.97;1.10;;;;;;;8.09;67.18;102140.03;10477832;28;20137;-55
2022/01/18 03:59:55;;;;;;;1.77;0.90;;;;;;;8.08;66.13;102151.56;10461841;28;20067;-56
2022/01/18 04:04:56;;;;;;;3.08;0.57;;;;;;;8.07;65.69;102152.50;10479766;28;20076;-57
2022/01/18 04:09:58;;;;;;;4.45;0.93;;;;;;;8.07;65.26;102163.09;10478280;28;20044;-56
2022/01/18 04:15:00;;;;;;;4.82;1.63;;;;;;;8.06;64.56;102164.03;10484741;28;20063;-57
2022/01/18 04:30:43;;;;;;;4.05;0.75;;;;;;;7.97;64.81;102169.69;10479475;28;20067;-54
2022/01/18 04:35:44;;;;;;;2.42;0.77;;;;;;;7.96;64.92;102163.53;10472620;28;20056;-56
2022/01/18 04:40:48;;;;;;;2.40;0.80;;;;;;;7.92;64.52;102156.59;10472375;28;20053;-56
2022/01/18 04:51:11;;;;;;;4.95;0.93;;;;;;;7.81;64.43;102155.28;10480408;28;20841;-55
2022/01/18 04:56:16;;;;;;;3.45;1.38;;;;;;;7.89;64.42;102156.72;10470459;28;20127;-56
2022/01/18 05:01:17;;;;;;;1.83;0.55;;;;;;;7.79;64.70;102150.94;10475593;28;20131;-56
2022/01/18 05:06:20;;;;;;;5.53;0.45;;;;;;;7.81;64.87;102166.78;10476779;28;20675;-56
2022/01/18 05:11:24;;;;;;;3.20;1.05;;;;;;;7.83;64.86;102187.94;10473924;28;20127;-56
2022/01/18 05:27:01;;;;;;;2.63;0.63;;;;;;;7.93;64.12;102200.78;10472258;28;20139;-56
2022/01/18 05:32:02;;;;;;;2.25;0.52;;;;;;;7.92;64.13;102199.03;10480275;28;20485;-56
2022/01/18 05:37:04;;;;;;;1.83;0.60;;;;;;;7.91;63.82;102205.28;10470425;28;20044;-56
2022/01/18 05:42:06;;;;;;;3.90;0.57;;;;;;;7.89;64.17;102200.94;10478170;28;20075;-56
2022/01/18 05:47:07;;;;;;;2.75;0.38;;;;;;;7.91;64.02;102217.66;10473123;28;20131;-56
2022/01/18 05:52:09;;;;;;;3.42;0.73;;;;;;;7.92;64.07;102220.25;10466485;28;20130;-55
2022/01/18 05:57:10;;;;;;;3.17;0.70;;;;;;;7.90;64.09;102231.84;10455359;28;20121;-56
2022/01/18 06:02:18;;;;;;;2.55;0.63;;;;;;;7.91;64.34;102222.97;10449469;28;20059;-55
2022/01/18 06:07:19;;;;;;;2.70;0.52;;;;;;;7.94;64.89;102228.16;10465830;28;21220;-56
2022/01/18 06:12:26;;;;;;;3.72;0.98;;;;;;;7.86;64.70;102222.28;10442231;28;20162;-58
2022/01/18 06:17:27;;;;;;;3.50;0.68;;;;;;;7.77;64.55;102208.44;10458138;28;20146;-56
2022/01/18 06:22:28;;;;;;;2.75;0.50;;;;;;;7.83;64.95;102225.91;10475100;28;20157;-55
2022/01/18 06:27:30;;;;;;;4.20;0.80;;;;;;;7.69;64.77;102207.88;10479901;28;20059;-56
2022/01/18 06:32:31;;;;;;;2.45;0.60;;;;;;;7.79;64.83;102218.97;10483204;28;20063;-57
2022/01/18 06:37:33;;;;;;;4.28;1.30;;;;;;;7.72;65.27;102210.41;10476005;28;20189;-59
2022/01/18 06:42:35;;;;;;;6.18;1.40;;;;;;;7.79;65.34;102230.47;10464650;28;20126;-56
2022/01/18 06:47:37;;;;;;;3.38;0.77;;;;;;;7.92;65.63;102245.91;10478463;28;20134;-57
2022/01/18 06:52:39;;;;;;;6.93;1.38;;;;;;;7.80;65.89;102226.03;10481570;28;20499;-57
2022/01/18 06:57:41;;;;;;;3.00;1.13;;;;;;;7.94;65.82;102250.25;10477396;28;20181;-56
2022/01/18 07:02:43;;;;;;;4.15;1.63;;;;;;;7.87;65.56;102248.75;10474955;28;20465;-56
2022/01/18 07:07:47;;;;;;;3.83;1.42;;;;;;;7.95;65.73;102264.34;10475276;28;20131;-57
2022/01/18 07:12:48;;;;;;;4.83;1.33;;;;;;;8.03;65.57;102264.94;10463618;28;20048;-57
2022/01/18 07:17:50;;;;;;;4.15;1.70;;;;;;;8.08;65.36;102272.72;10474924;28;20203;-55
2022/01/18 07:22:51;;;;;;;4.40;1.92;;;;;;;7.99;66.00;102259.78;10474723;28;20053;-56
2022/01/18 07:27:53;;;;;;;4.63;1.90;;;;;;;8.04;66.10;102271.97;10475837;28;20488;-55
2022/01/18 07:32:54;;;;;;;5.35;1.50;;;;;;;7.72;66.98;102260.78;10481243;28;20131;-56
2022/01/18 07:37:56;;;;;;;4.93;1.48;;;;;;;7.92;66.65;102277.72;10470605;28;20197;-57
2022/01/18 07:43:00;;;;;;;5.80;2.05;;;;;;;7.96;66.76;102279.34;10476671;28;20068;-55
2022/01/18 07:48:03;;;;;;;8.43;4.18;;;;;;;7.83;67.34;102286.03;10472231;28;20130;-55
2022/01/18 07:53:05;;;;;;;9.00;4.72;;;;;;;7.87;67.93;102290.31;10460257;28;20054;-57
2022/01/18 07:58:07;;;;;;;8.50;5.28;;;;;;;7.73;68.72;102272.22;10472717;28;20494;-56
2022/01/18 08:03:09;;;;;;;8.95;6.22;;;;;;;7.87;68.79;102290.31;10468125;28;20690;-57
2022/01/18 08:08:11;;;;;;;9.73;6.38;;;;;;;7.86;69.07;102288.56;10458088;28;20052;-57
2022/01/18 08:13:12;;;;;;;11.35;6.53;;;;;;;7.88;69.29;102290.25;10471014;28;20188;-58
2022/01/18 08:18:15;;;;;;;12.18;7.20;;;;;;;7.99;69.25;102295.16;10472369;28;20421;-58
2022/01/18 08:23:16;;;;;;;10.40;7.10;;;;;;;8.10;69.29;102287.66;10452886;28;20196;-59
2022/01/18 08:28:18;;;;;;;8.93;6.10;;;;;;;7.79;69.77;102304.69;10468491;28;20186;-60
2022/01/18 08:33:20;;;;;;;8.07;5.72;;;;;;;7.78;70.64;102300.31;10460675;28;20078;-56
2022/01/18 08:38:22;;;;;;;9.27;7.13;;;;;;;7.88;70.62;102307.94;10436480;28;20526;-58
2022/01/18 08:43:31;;;;;;;16.25;10.60;;;;;;;8.04;69.79;102309.09;10464485;28;20104;-57
2022/01/18 08:48:34;;;;;;;12.40;7.93;;;;;;;8.17;69.73;102298.03;10448497;28;20628;-57
2022/01/18 08:53:37;;;;;;;10.20;7.82;;;;;;;8.46;68.99;102319.03;10467016;28;20168;-57
2022/01/18 08:58:39;;;;;;;10.57;7.20;;;;;;;8.56;68.63;102314.25;10464793;28;20164;-58
2022/01/18 09:03:41;;;;;;;11.43;8.05;;;;;;;8.60;68.36;102314.97;10467877;28;20205;-57
2022/01/18 09:08:43;;;;;;;9.82;7.50;;;;;;;8.74;67.97;102312.66;10468494;28;20071;-58
2022/01/18 09:13:44;;;;;;;12.23;7.43;;;;;;;8.78;67.21;102290.38;10460627;28;20435;-60
2022/01/18 09:18:47;;;;;;;12.05;7.93;;;;;;;8.94;67.01;102311.00;10473405;28;20277;-57
2022/01/18 09:23:49;;;;;;;13.15;10.05;;;;;;;8.90;67.81;102310.22;10469033;28;20404;-54
2022/01/18 09:28:50;;;;;;;11.95;8.80;;;;;;;8.87;67.52;102318.31;10454079;28;20051;-56
2022/01/18 09:33:52;;;;;;;14.55;10.10;;;;;;;8.80;67.33;102322.19;10469864;28;20059;-56
2022/01/18 09:38:53;;;;;;;15.15;11.65;;;;;;;8.95;68.22;102339.28;10467368;28;20066;-56
2022/01/18 09:43:55;;;;;;;17.10;11.27;;;;;;;9.08;67.90;102339.63;10467369;28;20216;-56
2022/01/18 09:48:57;;;;;;;16.35;11.43;;;;;;;9.17;67.60;102337.47;10464000;28;20055;-57
2022/01/18 09:53:59;;;;;;;13.73;9.85;;;;;;;9.25;67.15;102341.59;10471411;28;20076;-57
2022/01/18 09:59:06;;;;;;;15.63;12.23;;;;;;;9.33;67.16;102337.69;10468576;28;20051;-58
2022/01/18 10:04:31;;;;;;;13.43;11.00;;;;;;;9.47;66.50;102337.13;10464249;28;20850;-58
2022/01/18 10:09:34;;;;;;;10.32;8.85;;;;;;;9.30;65.90;102321.88;10466281;28;20083;-57
2022/01/18 10:14:41;;;;;;;13.75;9.90;;;;;;;9.24;66.63;102329.25;10473194;28;20043;-57
2022/01/18 10:19:50;;;;;;;17.88;12.10;;;;;;;9.24;65.93;102329.25;10465949;28;20787;-58
2022/01/18 10:24:55;;;;;;;14.27;9.27;;;;;;;9.19;66.10;102313.50;10468911;28;20973;-58
2022/01/18 10:30:06;;;;;;;12.13;8.10;;;;;;;9.27;65.06;102306.06;10463562;28;20190;-57
2022/01/18 10:35:09;;;;;;;9.90;7.57;;;;;;;9.38;65.45;102316.22;10460307;28;20044;-57
2022/01/18 10:40:17;;;;;;;12.32;7.00;;;;;;;9.38;64.56;102324.19;10465775;28;20139;-57
2022/01/18 10:45:23;;;;;;;12.90;7.97;;;;;;;9.35;65.19;102321.69;10463956;28;20799;-57
2022/01/18 10:50:30;;;;;;;9.68;7.22;;;;;;;9.31;65.59;102330.72;10470747;28;20197;-57
2022/01/18 10:55:31;;;;;;;6.78;4.82;;;;;;;9.23;64.74;102323.06;10466867;28;20085;-57
2022/01/18 11:00:32;;;;;;;8.48;4.22;;;;;;;9.27;64.49;102318.50;10470222;28;20143;-57
2022/01/18 11:05:37;;;;;;;8.38;4.55;;;;;;;9.19;63.92;102305.53;10465520;28;20481;-56
2022/01/18 11:10:40;;;;;;;8.50;4.32;;;;;;;9.19;63.93;102305.53;10475999;28;20163;-57
2022/01/18 11:16:05;;;;;;;5.38;2.40;;;;;;;8.95;64.14;102287.03;10472825;28;20512;-58
2022/01/18 11:21:07;;;;;;;;;;;;;;;9.05;65.14;102292.81;10458223;28;20040;-56
2022/01/18 11:26:10;;;;;;;8.90;4.93;;;;;;;9.05;64.74;102295.47;10469867;28;20015;-58
2022/01/18 11:31:14;;;;;;;9.13;3.50;;;;;;;9.11;64.28;102299.66;10471417;28;20393;-57
2022/01/18 11:36:22;;;;;;;5.65;4.18;;;;;;;9.20;64.17;102292.19;10470241;28;20052;-56
2022/01/18 11:41:27;;;;;;;4.93;3.55;;;;;;;9.29;63.68;102279.41;10468420;28;20566;-56
2022/01/18 11:46:35;;;;;;;4.70;2.30;;;;;;;9.20;62.68;102280.66;10474699;28;20062;-58
2022/01/18 11:51:47;;;;;;;4.07;2.60;;;;;;;9.31;61.84;102280.22;10473155;28;20044;-56
2022/01/18 11:56:49;;;;;;;6.68;2.72;;;;;;;9.38;62.14;102271.03;10474177;28;20173;-57
2022/01/18 12:01:51;;;;;;;4.88;2.83;;;;;;;9.40;61.59;102271.84;10484635;28;20200;-59
2022/01/18 12:06:53;;;;;;;2.58;1.13;;;;;;;9.29;61.69;102274.09;10450535;28;20113;-58
2022/01/18 12:11:56;;;;;;;2.78;1.70;;;;;;;9.19;61.40;102239.94;10476381;28;20149;-57
2022/01/18 12:17:12;;;;;;;3.60;1.60;;;;;;;9.41;61.31;102262.94;10467595;28;20075;-60
2022/01/18 12:22:14;;;;;;;4.55;1.88;;;;;;;9.42;60.56;102264.66;10475491;28;20629;-57
2022/01/18 12:27:31;;;;;;;4.32;1.70;;;;;;;9.32;61.14;102242.06;10471228;28;20074;-57
2022/01/18 12:32:56;;;;;;;1.70;1.05;;;;;;;9.27;60.81;102228.13;10463603;28;20056;-58
2022/01/18 12:37:58;;;;;;;3.30;1.40;;;;;;;9.04;60.59;102200.78;10468584;28;20075;-58
2022/01/18 12:48:15;;;;;;;2.45;1.75;;;;;;;9.44;61.02;102238.03;10470560;28;20193;-58
2022/01/18 12:53:26;;;;;;;2.70;1.42;;;;;;;9.30;60.32;102230.66;10471353;28;20047;-57
2022/01/18 12:58:35;;;;;;;5.30;2.13;;;;;;;9.28;60.31;102209.47;10465842;28;20090;-57
2022/01/18 13:03:39;;;;;;;3.67;1.38;;;;;;;9.39;59.79;102227.59;10474732;28;20464;-56
2022/01/18 13:08:48;;;;;;;1.95;1.35;;;;;;;9.38;59.61;102225.84;10469677;28;20159;-57
2022/01/18 13:13:59;;;;;;;3.10;1.88;;;;;;;9.43;59.59;102223.00;10475886;28;20524;-58
2022/01/18 13:29:51;;;;;;;1.63;0.80;;;;;;;9.29;59.60;102210.31;10472383;28;20072;-57
2022/01/18 13:34:56;;;;;;;1.77;0.83;;;;;;;9.24;58.65;102214.97;10474805;28;20150;-58
2022/01/18 13:40:06;;;;;;;3.67;2.88;;;;;;;9.20;59.33;102217.78;10463225;28;20154;-57
2022/01/18 13:45:19;;;;;;;2.13;0.80;;;;;;;9.13;58.33;102215.47;10471973;28;20045;-58
2022/01/18 13:50:28;;;;;;;4.55;2.95;;;;;;;9.17;58.60;102207.28;10467897;28;20173;-58
2022/01/18 13:55:30;;;;;;;0.95;0.40;;;;;;;9.14;58.86;102199.44;10467157;28;20412;-58
2022/01/18 14:00:31;;;;;;;1.90;0.40;;;;;;;9.19;58.86;102209.88;10468094;28;20053;-58
2022/01/18 14:05:33;;;;;;;3.53;1.90;;;;;;;9.15;58.86;102205.63;10465009;28;20094;-56
2022/01/18 14:10:34;;;;;;;3.53;2.50;;;;;;;9.17;58.21;102186.03;10464493;28;20880;-55
2022/01/18 14:15:42;;;;;;;5.47;2.92;;;;;;;9.19;58.38;102194.78;10465056;28;20202;-57
2022/01/18 14:20:44;;;;;;;4.68;2.92;;;;;;;9.23;58.22;102205.28;10468493;28;20044;-59
2022/01/18 14:25:48;;;;;;;5.35;3.38;;;;;;;9.25;58.42;102208.72;10463461;28;20615;-62
2022/01/18 14:30:49;;;;;;;1.15;0.63;;;;;;;9.24;58.16;102207.88;10466539;28;20097;-58
2022/01/18 14:35:51;;;;;;;0.40;0.20;;;;;;;9.27;57.00;102197.09;10462572;28;20052;-57
2022/01/18 14:40:54;;;;;;;0.30;0.10;;;;;;;9.20;57.61;102190.31;10472295;28;20143;-58
2022/01/18 14:51:00;;;;;;;;;;;;;;;9.09;56.99;102185.47;10466735;28;20098;-59
2022/01/18 14:56:02;;;;;;;0.32;0.00;;;;;;;9.02;56.95;102184.00;10474479;28;19985;-58
2022/01/18 15:01:05;;;;;;;1.20;0.10;;;;;;;9.01;57.13;102187.63;10475495;28;20093;-59
2022/01/18 15:06:06;;;;;;;0.73;0.20;;;;;;;9.00;57.70;102185.88;10477732;22;20051;-61
2022/01/18 15:11:08;;;;;;;1.08;0.10;;;;;;;9.01;56.84;102195.59;10462999;28;20551;-61
2022/01/18 15:16:10;;;;;;;0.50;0.20;;;;;;;8.96;57.74;102184.28;10472799;28;20102;-61
2022/01/18 15:21:11;;;;;;;0.95;0.40;;;;;;;8.89;57.64;102178.38;10462046;28;20048;-60
2022/01/18 15:26:12;;;;;;;0.80;0.20;;;;;;;8.92;58.15;102185.38;10460716;28;20051;-59
2022/01/18 15:31:14;;;;;;;1.38;0.15;;;;;;;8.88;57.86;102179.31;10461318;28;20115;-60
2022/01/18 15:36:15;;;;;;;1.63;0.30;;;;;;;8.82;59.02;102175.09;10457999;28;20543;-59
2022/01/18 15:41:17;;;;;;;0.55;0.20;;;;;;;8.85;58.34;102187.41;10454766;28;20116;-58
2022/01/18 15:46:20;;;;;;;2.40;0.10;;;;;;;8.75;58.93;102197.56;10456962;28;20194;-60
2022/01/18 15:51:22;;;;;;;1.27;0.22;;;;;;;8.80;58.86;102187.59;10453689;28;20076;-59
2022/01/18 15:56:24;;;;;;;2.63;0.32;;;;;;;8.80;58.37;102187.59;10449522;28;20624;-59
2022/01/18 16:01:25;;;;;;;1.42;0.32;;;;;;;8.78;58.25;102189.47;10453594;28;20122;-58
2022/01/18 16:06:27;;;;;;;1.20;0.45;;;;;;;8.78;58.49;102188.59;10453195;28;20048;-59
2022/01/18 16:11:28;;;;;;;0.73;0.68;;;;;;;8.59;58.74;102157.50;10447413;28;20057;-59
2022/01/18 16:16:30;;;;;;;2.03;0.57;;;;;;;8.66;58.82;102187.31;10453295;28;20052;-59
2022/01/18 16:21:31;;;;;;;1.40;0.50;;;;;;;8.62;58.67;102183.91;10456114;28;20048;-60
2022/01/18 16:26:33;;;;;;;1.13;0.40;;;;;;;8.65;59.70;102185.59;10459076;28;20062;-60
2022/01/18 16:31:37;;;;;;;1.85;1.30;;;;;;;8.67;59.41;102186.38;10457954;28;20080;-59
2022/01/18 16:36:38;;;;;;;0.40;0.17;;;;;;;8.62;59.06;102181.28;10448677;28;20060;-59
2022/01/18 16:41:40;;;;;;;3.13;0.80;;;;;;;8.55;59.34;102176.28;10449811;28;20057;-59
2022/01/18 16:46:42;;;;;;;1.08;0.35;;;;;;;8.49;59.39;102172.09;10449706;28;20220;-59
2022/01/18 16:51:43;;;;;;;2.47;0.60;;;;;;;8.54;58.74;102171.88;10445867;28;20052;-59
2022/01/18 16:56:45;;;;;;;1.83;0.80;;;;;;;8.31;59.42;102155.09;10448964;28;20045;-62
2022/01/18 17:01:47;;;;;;;4.13;2.80;;;;;;;8.54;59.05;102169.22;10444349;28;20052;-59
2022/01/18 17:06:49;;;;;;;2.15;0.22;;;;;;;8.51;58.40;102158.75;10449399;28;20078;-59
2022/01/18 17:11:50;;;;;;;0.52;0.03;;;;;;;8.38;57.87;102161.88;10446345;28;20233;-64
2022/01/18 17:16:52;;;;;;;0.98;0.30;;;;;;;8.48;58.54;102160.59;10449294;28;20493;-57
2022/01/18 17:21:54;;;;;;;0.88;0.30;;;;;;;8.58;58.86;102165.53;10448967;28;20056;-61
2022/01/18 17:26:55;;;;;;;0.70;0.25;;;;;;;8.54;58.53;102143.56;10453327;28;20048;-59
2022/01/18 17:31:57;;;;;;;1.63;0.50;;;;;;;8.55;59.17;102144.44;10450538;28;20074;-57
2022/01/18 17:36:59;;;;;;;0.73;0.45;;;;;;;8.58;59.35;102157.56;10450909;28;20163;-60
2022/01/18 17:42:01;;;;;;;0.60;0.43;;;;;;;8.51;59.02;102148.97;10452538;28;20056;-60
2022/01/18 17:47:03;;;;;;;0.68;0.45;;;;;;;8.55;59.98;102168.31;10448801;28;20055;-58
2022/01/18 17:52:05;;;;;;;1.42;0.60;;;;;;;8.55;60.24;102160.34;10450838;28;21115;-58
2022/01/18 17:57:07;;;;;;;2.35;1.17;;;;;;;8.49;60.61;102149.03;10453393;28;20048;-59
2022/01/18 18:02:09;;;;;;;1.60;1.10;;;;;;;8.30;61.12;102116.19;10454126;28;20204;-58
2022/01/18 18:07:11;;;;;;;2.70;1.20;;;;;;;8.53;61.30;102151.56;10444111;28;20053;-60
2022/01/18 18:12:12;;;;;;;3.10;2.30;;;;;;;8.51;61.28;102138.38;10446238;28;20060;-59
2022/01/18 18:17:14;;;;;;;3.28;2.40;;;;;;;8.57;61.67;102155.84;10455009;28;20541;-59
2022/01/18 18:22:16;;;;;;;3.45;1.92;;;;;;;8.42;61.64;102138.72;10461755;28;20058;-59
2022/01/18 18:27:17;;;;;;;2.88;2.58;;;;;;;8.46;62.11;102157.13;10462058;28;20040;-59
2022/01/18 18:32:19;;;;;;;8.25;6.10;;;;;;;8.47;62.78;102161.53;10460929;28;20649;-60
2022/01/18 18:37:20;;;;;;;4.38;2.63;;;;;;;8.47;62.86;102153.56;10463353;28;20144;-59
2022/01/18 18:42:26;;;;;;;6.05;3.15;;;;;;;8.50;62.85;102147.28;10461906;28;20477;-60
2022/01/18 18:47:29;;;;;;;3.35;2.78;;;;;;;8.36;63.17;102113.31;10459355;28;20152;-59
2022/01/18 18:52:30;;;;;;;5.30;3.28;;;;;;;8.45;63.01;102112.09;10461516;28;20052;-58
2022/01/18 18:57:43;;;;;;;6.78;4.00;;;;;;;8.45;63.09;102117.38;10461361;28;20246;-59
2022/01/18 19:03:01;;;;;;;5.72;4.35;;;;;;;8.39;63.44;102123.81;10457146;28;20045;-59
2022/01/18 19:08:02;;;;;;;6.03;4.05;;;;;;;8.32;63.89;102155.03;10458058;28;20048;-59
2022/01/18 19:13:05;;;;;;;8.98;5.80;;;;;;;8.27;64.14;102149.06;10455254;28;20735;-59
2022/01/18 19:18:06;;;;;;;9.18;5.75;;;;;;;8.35;64.47;102151.38;10455597;28;20056;-58
2022/01/18 19:23:13;;;;;;;7.50;4.20;;;;;;;8.32;64.02;102143.56;10450211;28;20044;-59
2022/01/18 19:28:15;;;;;;;7.18;3.70;;;;;;;8.30;64.08;102135.66;10455872;28;20056;-59
2022/01/18 19:33:17;;;;;;;7.57;5.07;;;;;;;8.28;64.43;102134.00;10447416;28;20052;-58
2022/01/18 19:38:19;;;;;;;6.30;4.72;;;;;;;8.26;64.53;102142.00;10447038;28;20771;-61
2022/01/18 19:43:21;;;;;;;5.80;4.32;;;;;;;8.29;64.79;102127.75;10452950;28;20056;-59
2022/01/18 19:48:22;;;;;;;3.58;2.90;;;;;;;8.31;64.40;102128.56;10452371;28;20052;-60
2022/01/18 19:53:25;;;;;;;2.90;1.88;;;;;;;8.25;63.38;102126.16;10452415;28;20392;-59
2022/01/18 19:58:26;;;;;;;3.15;1.70;;;;;;;8.12;62.62;102118.69;10450589;28;20049;-60
2022/01/18 20:03:28;;;;;;;2.72;1.92;;;;;;;8.07;62.60;102112.69;10446566;28;20157;-59
2022/01/18 20:08:30;;;;;;;3.70;1.85;;;;;;;8.03;62.53;102105.81;10455870;28;20114;-59
2022/01/18 20:13:35;;;;;;;2.13;1.73;;;;;;;7.95;62.89;102102.59;10451555;28;20183;-60
2022/01/18 20:18:36;;;;;;;2.67;1.63;;;;;;;7.85;62.71;102095.91;10460549;28;20140;-59
2022/01/18 20:23:38;;;;;;;2.45;1.67;;;;;;;7.86;62.83;102072.00;10476421;28;20472;-59
2022/01/18 20:28:40;;;;;;;3.13;1.75;;;;;;;7.88;62.70;102074.59;10459707;28;20052;-60
2022/01/18 20:33:41;;;;;;;2.17;1.60;;;;;;;7.92;63.29;102081.50;10456244;28;20499;-59
2022/01/18 20:38:44;;;;;;;2.35;1.20;;;;;;;7.83;62.22;102073.91;10458908;28;20048;-59
2022/01/18 20:43:45;;;;;;;2.00;1.17;;;;;;;7.84;62.69;102070.34;10465464;28;20106;-58
2022/01/18 20:48:47;;;;;;;2.85;1.60;;;;;;;7.83;62.48;102071.28;10466178;28;20058;-58
2022/01/18 20:53:49;;;;;;;1.35;1.25;;;;;;;7.79;62.90;102063.44;10463799;28;20126;-59
2022/01/18 20:58:50;;;;;;;2.72;1.50;;;;;;;7.77;62.45;102046.72;10454633;28;20503;-59
2022/01/18 21:03:52;;;;;;;1.95;1.25;;;;;;;7.77;62.54;102036.09;10459587;28;20063;-59
2022/01/18 21:08:53;;;;;;;2.67;0.70;;;;;;;7.72;62.34;102016.88;10453153;28;20524;-59
2022/01/18 21:14:02;;;;;;;1.60;0.50;;;;;;;7.68;61.77;101987.91;10448993;28;20052;-59
2022/01/18 21:19:03;;;;;;;2.65;1.75;;;;;;;7.86;62.07;102007.50;10437698;28;20127;-59
2022/01/18 21:24:05;;;;;;;1.20;0.90;;;;;;;7.86;61.75;102002.22;10444824;28;20510;-59
2022/01/18 21:29:08;;;;;;;3.05;1.50;;;;;;;7.84;61.72;101996.97;10447194;28;20110;-59
2022/01/18 21:34:10;;;;;;;1.67;1.50;;;;;;;7.77;62.13;102003.44;10447612;28;20118;-59
2022/01/18 21:39:12;;;;;;;1.45;1.08;;;;;;;7.68;61.75;101988.78;10456210;28;20054;-59
2022/01/18 21:44:13;;;;;;;1.20;0.82;;;;;;;7.62;61.97;101989.03;10445597;28;20071;-60
2022/01/18 21:49:15;;;;;;;3.30;1.20;;;;;;;7.65;61.81;102004.78;10451357;28;20127;-59
2022/01/18 21:54:17;;;;;;;1.42;1.10;;;;;;;7.65;62.00;101977.44;10457250;28;20048;-58
2022/01/18 21:59:18;;;;;;;1.65;0.98;;;;;;;7.69;61.58;101985.22;10444789;28;20140;-60
2022/01/18 22:04:19;;;;;;;1.48;1.08;;;;;;;7.59;61.70;101981.19;10442912;28;20048;-59
2022/01/18 22:09:21;;;;;;;1.05;0.90;;;;;;;7.47;61.76;101957.84;10442665;28;20045;-59
2022/01/18 22:14:22;;;;;;;1.40;0.90;;;;;;;7.47;61.65;101961.34;10451951;28;20151;-59
2022/01/18 22:19:25;;;;;;;1.20;0.80;;;;;;;7.47;61.65;101952.56;10448442;28;20473;-60
2022/01/18 22:24:26;;;;;;;1.35;0.57;;;;;;;7.50;61.49;101949.78;10441491;28;20123;-60
2022/01/18 22:29:27;;;;;;;1.10;0.63;;;;;;;7.45;61.27;101942.00;10444578;28;20127;-60
2022/01/18 22:34:29;;;;;;;0.80;0.80;;;;;;;7.35;61.39;101941.50;10447954;28;20048;-64
2022/01/18 22:39:30;;;;;;;1.58;0.77;;;;;;;7.30;61.56;101927.59;10442044;28;20114;-62
2022/01/18 22:44:32;;;;;;;1.40;0.80;;;;;;;7.26;61.50;101907.44;10439536;28;20045;-61
2022/01/18 22:49:35;;;;;;;1.95;1.00;;;;;;;7.25;61.87;101906.59;10444814;28;20704;-59
2022/01/18 22:54:40;;;;;;;1.38;0.88;;;;;;;7.27;61.65;101898.59;10449279;28;20130;-59
2022/01/18 22:59:42;;;;;;;1.48;0.73;;;;;;;7.16;62.15;101884.91;10443092;28;20052;-60
2022/01/18 23:04:46;;;;;;;2.20;1.00;;;;;;;7.14;62.26;101881.44;10445881;28;20173;-59
2022/01/18 23:09:48;;;;;;;2.15;1.00;;;;;;;7.21;61.75;101882.94;10445694;28;20487;-60
2022/01/18 23:14:49;;;;;;;2.10;0.80;;;;;;;7.04;62.04;101875.66;10447477;28;20056;-59
2022/01/18 23:19:51;;;;;;;1.30;0.60;;;;;;;6.92;62.64;101876.13;10446151;28;20153;-59
2022/01/18 23:24:52;;;;;;;0.70;0.68;;;;;;;7.01;62.85;101897.84;10443256;28;20056;-59
2022/01/18 23:29:54;;;;;;;1.05;0.60;;;;;;;7.11;62.45;101892.19;10452311;28;20403;-59
2022/01/18 23:34:56;;;;;;;1.02;0.82;;;;;;;7.11;62.11;101892.19;10448955;28;20403;-59
2022/01/18 23:40:10;;;;;;;0.73;0.50;;;;;;;7.07;62.14;101883.47;10441450;28;20071;-59
2022/01/18 23:45:14;;;;;;;1.30;0.73;;;;;;;6.98;62.00;101873.25;10449799;28;20044;-59
2022/01/18 23:50:16;;;;;;;1.27;0.75;;;;;;;6.98;62.20;101847.66;10449102;28;25117;-58
2022/01/18 23:55:17;;;;;;;1.63;1.10;;;;;;;6.99;62.20;101859.94;10443231;28;20067;-59
